메인 페이지
METAR-TAF:

METAR-TAF

공항 :

그란카나리아 섬, 스페인

위도: 27-56N, 경도: 015-23W, 고도: 23m

현재 날씨관측

예보는 20분 전, 09:30시(UTC)에 발표되었습니다.
북북서16kt서북서풍과 풍을 오가는
온도 18°C
습도 59%
기압 1022 hPa
시정 10km 이상
고도 2500ft 상공 구름 조금
고도 5500ft 상공 구름 많음

METAR: GCLP 180930Z 33016KT 300V360 9999 FEW025 BKN055 18/10 Q1022 NOSIG

시각: 09:50 (09:50 UTC)

예보

예보는 1 시간 50분 전, 08:00시(UTC)에 발표되었습니다.
예보 대상 시간: 18일 09시부터 19일 09시까지 (UTC)
20kt
시정 10km 이상
고도 3000ft 상공 구름 보통
확률 40% :
일시적
18일 09시부터 18일 15시까지 (UTC)

TAF: GCLP 180800Z 1809/1909 35020KT 9999 SCT030 TX21/1814Z TN16/1906Z PROB40 TEMPO 1809/1815 RA

4,000개 이상의 공항 관측 자료 및 예보 (METAR 및 TAF 보고).

지도상에서 검색 가능한 기상관측소가 노란 점과 빨간 점으로 표시되어 있습니다.

기상관측소 명을 보려면 표시 위로 마우스를 이동하세요.

날씨 관측과 예보를 보려면 클릭하세요.

지도 변경 : 확대하려면 엑스 표시가 있는 녹색 버튼, 축소하려면 빼기 표시가 있는 녹색 버튼, 다음 페이지의 지도를 보려면 녹색 화살표를 클릭하세요.


METAR-TAF: